sensor_id;sensor_type;location;lat;lon;timestamp;P1;durP1;ratioP1;P2;durP2;ratioP2
34204;SDS011;20471;49.680;20.074;2022-09-09T00:04:41;11.25;;;10.15;;
34204;SDS011;20471;49.680;20.074;2022-09-09T00:07:15;10.93;;;9.75;;
34204;SDS011;20471;49.680;20.074;2022-09-09T00:10:13;14.05;;;10.60;;
34204;SDS011;20471;49.680;20.074;2022-09-09T00:12:51;12.20;;;10.88;;
34204;SDS011;20471;49.680;20.074;2022-09-09T00:24:51;13.22;;;11.83;;
34204;SDS011;20471;49.680;20.074;2022-09-09T00:30:15;15.00;;;11.93;;
34204;SDS011;20471;49.680;20.074;2022-09-09T00:32:52;12.70;;;11.30;;
34204;SDS011;20471;49.680;20.074;2022-09-09T00:35:29;13.32;;;11.90;;
34204;SDS011;20471;49.680;20.074;2022-09-09T00:38:04;13.53;;;11.90;;
34204;SDS011;20471;49.680;20.074;2022-09-09T00:40:48;15.72;;;11.30;;
34204;SDS011;20471;49.680;20.074;2022-09-09T00:49:37;12.55;;;11.20;;
34204;SDS011;20471;49.680;20.074;2022-09-09T00:55:31;13.43;;;10.60;;
34204;SDS011;20471;49.680;20.074;2022-09-09T00:58:13;11.88;;;10.78;;
34204;SDS011;20471;49.680;20.074;2022-09-09T01:00:44;12.00;;;10.78;;
34204;SDS011;20471;49.680;20.074;2022-09-09T01:03:22;13.28;;;10.82;;
34204;SDS011;20471;49.680;20.074;2022-09-09T01:17:17;12.33;;;11.12;;
34204;SDS011;20471;49.680;20.074;2022-09-09T01:26:10;12.30;;;10.95;;
34204;SDS011;20471;49.680;20.074;2022-09-09T01:28:44;14.43;;;11.50;;
34204;SDS011;20471;49.680;20.074;2022-09-09T01:31:17;13.98;;;11.28;;
34204;SDS011;20471;49.680;20.074;2022-09-09T01:33:46;13.10;;;11.73;;
34204;SDS011;20471;49.680;20.074;2022-09-09T01:36:15;14.85;;;11.43;;
34204;SDS011;20471;49.680;20.074;2022-09-09T01:38:48;14.30;;;10.82;;
34204;SDS011;20471;49.680;20.074;2022-09-09T01:41:14;13.35;;;11.70;;
34204;SDS011;20471;49.680;20.074;2022-09-09T01:43:41;11.30;;;9.80;;
34204;SDS011;20471;49.680;20.074;2022-09-09T01:46:07;12.18;;;11.00;;
34204;SDS011;20471;49.680;20.074;2022-09-09T01:48:34;10.95;;;9.48;;
34204;SDS011;20471;49.680;20.074;2022-09-09T01:51:01;11.97;;;10.78;;
34204;SDS011;20471;49.680;20.074;2022-09-09T01:53:27;12.53;;;11.22;;
34204;SDS011;20471;49.680;20.074;2022-09-09T02:02:00;11.75;;;10.50;;
34204;SDS011;20471;49.680;20.074;2022-09-09T02:04:47;11.30;;;10.15;;
34204;SDS011;20471;49.680;20.074;2022-09-09T02:12:47;11.53;;;10.40;;
34204;SDS011;20471;49.680;20.074;2022-09-09T02:15:23;11.48;;;10.30;;
34204;SDS011;20471;49.680;20.074;2022-09-09T02:18:08;12.18;;;11.00;;
34204;SDS011;20471;49.680;20.074;2022-09-09T02:20:36;14.25;;;9.95;;
34204;SDS011;20471;49.680;20.074;2022-09-09T02:23:06;11.97;;;10.15;;
34204;SDS011;20471;49.680;20.074;2022-09-09T02:25:34;11.55;;;10.08;;
34204;SDS011;20471;49.680;20.074;2022-09-09T02:28:03;11.80;;;10.63;;
34204;SDS011;20471;49.680;20.074;2022-09-09T02:30:33;12.28;;;10.30;;
34204;SDS011;20471;49.680;20.074;2022-09-09T02:33:02;10.70;;;9.60;;
34204;SDS011;20471;49.680;20.074;2022-09-09T02:35:32;11.15;;;8.88;;
34204;SDS011;20471;49.680;20.074;2022-09-09T02:38:02;10.23;;;9.03;;
34204;SDS011;20471;49.680;20.074;2022-09-09T02:40:33;10.83;;;8.93;;
34204;SDS011;20471;49.680;20.074;2022-09-09T02:42:59;9.50;;;8.60;;
34204;SDS011;20471;49.680;20.074;2022-09-09T02:45:32;10.15;;;9.15;;
34204;SDS011;20471;49.680;20.074;2022-09-09T02:48:17;8.68;;;7.78;;
34204;SDS011;20471;49.680;20.074;2022-09-09T02:50:54;9.45;;;7.28;;
34204;SDS011;20471;49.680;20.074;2022-09-09T02:56:04;10.43;;;9.33;;
34204;SDS011;20471;49.680;20.074;2022-09-09T02:58:35;10.08;;;8.48;;
34204;SDS011;20471;49.680;20.074;2022-09-09T03:01:02;9.83;;;8.03;;
34204;SDS011;20471;49.680;20.074;2022-09-09T03:03:29;7.97;;;7.17;;
34204;SDS011;20471;49.680;20.074;2022-09-09T03:05:55;8.43;;;7.62;;
34204;SDS011;20471;49.680;20.074;2022-09-09T03:08:22;8.18;;;7.42;;
34204;SDS011;20471;49.680;20.074;2022-09-09T03:10:49;8.75;;;7.85;;
34204;SDS011;20471;49.680;20.074;2022-09-09T03:13:16;8.90;;;8.00;;
34204;SDS011;20471;49.680;20.074;2022-09-09T03:15:44;9.18;;;8.28;;
34204;SDS011;20471;49.680;20.074;2022-09-09T03:18:10;9.95;;;8.28;;
34204;SDS011;20471;49.680;20.074;2022-09-09T03:20:37;8.75;;;7.90;;
34204;SDS011;20471;49.680;20.074;2022-09-09T03:23:03;8.60;;;7.80;;
34204;SDS011;20471;49.680;20.074;2022-09-09T03:25:30;11.08;;;7.95;;
34204;SDS011;20471;49.680;20.074;2022-09-09T03:27:57;9.65;;;8.48;;
34204;SDS011;20471;49.680;20.074;2022-09-09T03:30:24;9.48;;;8.03;;
34204;SDS011;20471;49.680;20.074;2022-09-09T03:32:52;11.00;;;8.95;;
34204;SDS011;20471;49.680;20.074;2022-09-09T03:35:20;10.82;;;8.65;;
34204;SDS011;20471;49.680;20.074;2022-09-09T03:37:47;10.70;;;8.78;;
34204;SDS011;20471;49.680;20.074;2022-09-09T03:40:14;10.60;;;8.38;;
34204;SDS011;20471;49.680;20.074;2022-09-09T03:42:41;9.93;;;8.58;;
34204;SDS011;20471;49.680;20.074;2022-09-09T03:45:08;10.45;;;7.67;;
34204;SDS011;20471;49.680;20.074;2022-09-09T03:47:36;11.05;;;8.35;;
34204;SDS011;20471;49.680;20.074;2022-09-09T03:50:03;11.00;;;8.05;;
34204;SDS011;20471;49.680;20.074;2022-09-09T03:52:34;8.93;;;8.05;;
34204;SDS011;20471;49.680;20.074;2022-09-09T03:55:02;9.03;;;8.20;;
34204;SDS011;20471;49.680;20.074;2022-09-09T03:57:30;9.93;;;8.25;;
34204;SDS011;20471;49.680;20.074;2022-09-09T03:59:57;9.35;;;7.95;;
34204;SDS011;20471;49.680;20.074;2022-09-09T04:02:25;11.68;;;7.40;;
34204;SDS011;20471;49.680;20.074;2022-09-09T04:04:52;10.03;;;7.62;;
34204;SDS011;20471;49.680;20.074;2022-09-09T04:07:18;11.28;;;7.75;;
34204;SDS011;20471;49.680;20.074;2022-09-09T04:09:45;7.95;;;6.72;;
34204;SDS011;20471;49.680;20.074;2022-09-09T04:12:12;10.90;;;7.35;;
34204;SDS011;20471;49.680;20.074;2022-09-09T04:14:38;8.53;;;6.95;;
34204;SDS011;20471;49.680;20.074;2022-09-09T04:17:05;9.60;;;7.33;;
34204;SDS011;20471;49.680;20.074;2022-09-09T04:19:32;7.47;;;6.78;;
34204;SDS011;20471;49.680;20.074;2022-09-09T04:21:59;11.65;;;7.08;;
34204;SDS011;20471;49.680;20.074;2022-09-09T04:24:25;9.10;;;7.28;;
34204;SDS011;20471;49.680;20.074;2022-09-09T04:26:54;9.18;;;7.67;;
34204;SDS011;20471;49.680;20.074;2022-09-09T04:29:22;14.55;;;7.22;;
34204;SDS011;20471;49.680;20.074;2022-09-09T04:31:49;9.35;;;7.15;;
34204;SDS011;20471;49.680;20.074;2022-09-09T04:34:15;11.08;;;6.83;;
34204;SDS011;20471;49.680;20.074;2022-09-09T04:36:42;7.30;;;6.42;;
34204;SDS011;20471;49.680;20.074;2022-09-09T04:39:09;10.38;;;6.65;;
34204;SDS011;20471;49.680;20.074;2022-09-09T04:41:36;8.45;;;5.78;;
34204;SDS011;20471;49.680;20.074;2022-09-09T04:44:03;6.10;;;5.47;;
34204;SDS011;20471;49.680;20.074;2022-09-09T04:46:29;7.37;;;5.95;;
34204;SDS011;20471;49.680;20.074;2022-09-09T04:48:56;7.03;;;5.70;;
34204;SDS011;20471;49.680;20.074;2022-09-09T04:51:22;6.00;;;5.50;;
34204;SDS011;20471;49.680;20.074;2022-09-09T04:53:49;8.23;;;6.20;;
34204;SDS011;20471;49.680;20.074;2022-09-09T04:56:16;10.58;;;5.72;;
34204;SDS011;20471;49.680;20.074;2022-09-09T04:58:44;10.38;;;5.95;;
34204;SDS011;20471;49.680;20.074;2022-09-09T05:01:18;6.58;;;5.97;;
34204;SDS011;20471;49.680;20.074;2022-09-09T05:03:47;8.23;;;6.40;;
34204;SDS011;20471;49.680;20.074;2022-09-09T05:06:15;7.03;;;5.80;;
34204;SDS011;20471;49.680;20.074;2022-09-09T05:08:47;7.10;;;5.60;;
34204;SDS011;20471;49.680;20.074;2022-09-09T05:11:16;7.00;;;6.05;;
34204;SDS011;20471;49.680;20.074;2022-09-09T05:13:48;10.60;;;5.85;;
34204;SDS011;20471;49.680;20.074;2022-09-09T05:16:15;6.35;;;5.70;;
34204;SDS011;20471;49.680;20.074;2022-09-09T05:18:45;6.75;;;5.80;;
34204;SDS011;20471;49.680;20.074;2022-09-09T05:21:12;7.47;;;6.50;;
34204;SDS011;20471;49.680;20.074;2022-09-09T05:23:40;7.70;;;6.37;;
34204;SDS011;20471;49.680;20.074;2022-09-09T05:26:09;8.05;;;6.58;;
34204;SDS011;20471;49.680;20.074;2022-09-09T05:28:39;8.60;;;6.25;;
34204;SDS011;20471;49.680;20.074;2022-09-09T05:31:06;8.58;;;6.35;;
34204;SDS011;20471;49.680;20.074;2022-09-09T05:33:35;7.35;;;6.65;;
34204;SDS011;20471;49.680;20.074;2022-09-09T05:36:06;7.87;;;6.85;;
34204;SDS011;20471;49.680;20.074;2022-09-09T05:38:39;8.98;;;6.80;;
34204;SDS011;20471;49.680;20.074;2022-09-09T05:41:07;7.33;;;6.28;;
34204;SDS011;20471;49.680;20.074;2022-09-09T05:43:37;10.10;;;7.12;;
34204;SDS011;20471;49.680;20.074;2022-09-09T05:46:08;7.58;;;6.30;;
34204;SDS011;20471;49.680;20.074;2022-09-09T05:48:42;7.35;;;6.75;;
34204;SDS011;20471;49.680;20.074;2022-09-09T05:51:09;9.43;;;6.95;;
34204;SDS011;20471;49.680;20.074;2022-09-09T05:53:43;8.48;;;7.08;;
34204;SDS011;20471;49.680;20.074;2022-09-09T05:56:21;7.42;;;6.50;;
34204;SDS011;20471;49.680;20.074;2022-09-09T05:58:45;9.13;;;7.25;;
34204;SDS011;20471;49.680;20.074;2022-09-09T06:01:16;8.18;;;6.72;;
34204;SDS011;20471;49.680;20.074;2022-09-09T06:03:45;7.28;;;6.10;;
34204;SDS011;20471;49.680;20.074;2022-09-09T06:06:14;9.65;;;6.72;;
34204;SDS011;20471;49.680;20.074;2022-09-09T06:08:47;8.68;;;6.30;;
34204;SDS011;20471;49.680;20.074;2022-09-09T06:11:20;7.37;;;6.22;;
34204;SDS011;20471;49.680;20.074;2022-09-09T06:13:56;7.28;;;6.58;;
34204;SDS011;20471;49.680;20.074;2022-09-09T06:16:25;8.10;;;6.33;;
34204;SDS011;20471;49.680;20.074;2022-09-09T06:18:53;7.22;;;6.53;;
34204;SDS011;20471;49.680;20.074;2022-09-09T06:21:23;7.10;;;6.50;;
34204;SDS011;20471;49.680;20.074;2022-09-09T06:23:52;7.05;;;6.42;;
34204;SDS011;20471;49.680;20.074;2022-09-09T06:26:22;8.53;;;6.30;;
34204;SDS011;20471;49.680;20.074;2022-09-09T06:28:53;7.42;;;6.78;;
34204;SDS011;20471;49.680;20.074;2022-09-09T06:31:21;9.95;;;6.33;;
34204;SDS011;20471;49.680;20.074;2022-09-09T06:33:53;6.95;;;6.00;;
34204;SDS011;20471;49.680;20.074;2022-09-09T06:36:23;7.00;;;6.30;;
34204;SDS011;20471;49.680;20.074;2022-09-09T06:38:52;6.50;;;5.83;;
34204;SDS011;20471;49.680;20.074;2022-09-09T06:41:20;7.97;;;6.05;;
34204;SDS011;20471;49.680;20.074;2022-09-09T06:43:50;4.78;;;4.37;;
34204;SDS011;20471;49.680;20.074;2022-09-09T06:46:18;5.25;;;4.05;;
34204;SDS011;20471;49.680;20.074;2022-09-09T06:48:47;5.15;;;4.50;;
34204;SDS011;20471;49.680;20.074;2022-09-09T06:51:16;4.95;;;4.50;;
34204;SDS011;20471;49.680;20.074;2022-09-09T06:53:52;4.28;;;3.87;;
34204;SDS011;20471;49.680;20.074;2022-09-09T06:56:28;6.25;;;4.10;;
34204;SDS011;20471;49.680;20.074;2022-09-09T06:58:54;3.75;;;3.40;;
34204;SDS011;20471;49.680;20.074;2022-09-09T07:01:24;5.22;;;3.40;;
34204;SDS011;20471;49.680;20.074;2022-09-09T07:03:58;6.10;;;3.33;;
34204;SDS011;20471;49.680;20.074;2022-09-09T07:06:27;3.58;;;3.27;;
34204;SDS011;20471;49.680;20.074;2022-09-09T07:08:58;2.95;;;2.75;;
34204;SDS011;20471;49.680;20.074;2022-09-09T07:11:29;5.70;;;3.37;;
34204;SDS011;20471;49.680;20.074;2022-09-09T07:14:08;3.12;;;2.85;;
34204;SDS011;20471;49.680;20.074;2022-09-09T07:16:37;3.80;;;2.70;;
34204;SDS011;20471;49.680;20.074;2022-09-09T07:19:05;4.30;;;3.37;;
34204;SDS011;20471;49.680;20.074;2022-09-09T07:21:33;4.40;;;3.10;;
34204;SDS011;20471;49.680;20.074;2022-09-09T07:24:03;3.80;;;3.20;;
34204;SDS011;20471;49.680;20.074;2022-09-09T07:26:31;3.87;;;3.12;;
34204;SDS011;20471;49.680;20.074;2022-09-09T07:28:58;2.77;;;2.58;;
34204;SDS011;20471;49.680;20.074;2022-09-09T07:31:26;3.80;;;2.90;;
34204;SDS011;20471;49.680;20.074;2022-09-09T07:33:58;2.65;;;2.45;;
34204;SDS011;20471;49.680;20.074;2022-09-09T07:36:27;4.20;;;2.60;;
34204;SDS011;20471;49.680;20.074;2022-09-09T07:38:57;2.50;;;2.30;;
34204;SDS011;20471;49.680;20.074;2022-09-09T07:41:34;3.00;;;2.60;;
34204;SDS011;20471;49.680;20.074;2022-09-09T07:44:12;3.33;;;2.30;;
34204;SDS011;20471;49.680;20.074;2022-09-09T07:46:42;2.67;;;2.30;;
34204;SDS011;20471;49.680;20.074;2022-09-09T07:49:11;2.83;;;2.00;;
34204;SDS011;20471;49.680;20.074;2022-09-09T07:51:39;3.77;;;2.15;;
34204;SDS011;20471;49.680;20.074;2022-09-09T07:54:10;2.98;;;2.10;;
34204;SDS011;20471;49.680;20.074;2022-09-09T07:56:39;2.08;;;1.87;;
34204;SDS011;20471;49.680;20.074;2022-09-09T07:59:06;2.10;;;1.80;;
34204;SDS011;20471;49.680;20.074;2022-09-09T08:01:36;3.67;;;1.80;;
34204;SDS011;20471;49.680;20.074;2022-09-09T08:04:07;1.82;;;1.70;;
34204;SDS011;20471;49.680;20.074;2022-09-09T08:06:40;3.02;;;1.82;;
34204;SDS011;20471;49.680;20.074;2022-09-09T08:09:10;2.02;;;1.82;;
34204;SDS011;20471;49.680;20.074;2022-09-09T08:11:47;3.55;;;1.80;;
34204;SDS011;20471;49.680;20.074;2022-09-09T08:17:17;3.72;;;1.92;;
34204;SDS011;20471;49.680;20.074;2022-09-09T08:19:47;3.98;;;2.08;;
34204;SDS011;20471;49.680;20.074;2022-09-09T08:22:12;3.50;;;2.25;;
34204;SDS011;20471;49.680;20.074;2022-09-09T08:27:55;2.60;;;2.08;;
34204;SDS011;20471;49.680;20.074;2022-09-09T08:30:22;2.42;;;2.22;;
34204;SDS011;20471;49.680;20.074;2022-09-09T08:32:50;2.02;;;1.90;;
34204;SDS011;20471;49.680;20.074;2022-09-09T08:35:17;2.50;;;1.85;;
34204;SDS011;20471;49.680;20.074;2022-09-09T08:37:45;2.00;;;1.80;;
34204;SDS011;20471;49.680;20.074;2022-09-09T08:40:17;2.15;;;1.95;;
34204;SDS011;20471;49.680;20.074;2022-09-09T08:42:46;2.27;;;1.82;;
34204;SDS011;20471;49.680;20.074;2022-09-09T08:45:31;2.72;;;1.80;;
34204;SDS011;20471;49.680;20.074;2022-09-09T08:51:01;3.65;;;2.02;;
34204;SDS011;20471;49.680;20.074;2022-09-09T08:53:42;1.77;;;1.67;;
34204;SDS011;20471;49.680;20.074;2022-09-09T08:56:20;3.60;;;2.15;;
34204;SDS011;20471;49.680;20.074;2022-09-09T08:58:52;2.30;;;1.95;;
34204;SDS011;20471;49.680;20.074;2022-09-09T09:13:11;2.10;;;1.70;;
34204;SDS011;20471;49.680;20.074;2022-09-09T09:15:52;2.17;;;1.60;;
34204;SDS011;20471;49.680;20.074;2022-09-09T09:18:22;5.12;;;1.55;;
34204;SDS011;20471;49.680;20.074;2022-09-09T09:20:54;2.15;;;1.77;;
34204;SDS011;20471;49.680;20.074;2022-09-09T09:23:44;2.70;;;1.85;;
34204;SDS011;20471;49.680;20.074;2022-09-09T09:26:23;2.92;;;1.85;;
34204;SDS011;20471;49.680;20.074;2022-09-09T09:28:58;1.50;;;1.40;;
34204;SDS011;20471;49.680;20.074;2022-09-09T09:33:59;3.60;;;1.87;;
34204;SDS011;20471;49.680;20.074;2022-09-09T09:36:33;2.40;;;1.65;;
34204;SDS011;20471;49.680;20.074;2022-09-09T09:39:06;2.45;;;1.82;;
34204;SDS011;20471;49.680;20.074;2022-09-09T09:41:36;1.12;;;1.12;;
34204;SDS011;20471;49.680;20.074;2022-09-09T09:47:13;1.87;;;1.10;;
34204;SDS011;20471;49.680;20.074;2022-09-09T09:49:53;1.95;;;1.00;;
34204;SDS011;20471;49.680;20.074;2022-09-09T09:52:26;1.32;;;1.05;;
34204;SDS011;20471;49.680;20.074;2022-09-09T09:54:56;2.27;;;1.20;;
34204;SDS011;20471;49.680;20.074;2022-09-09T09:57:26;1.32;;;1.22;;
34204;SDS011;20471;49.680;20.074;2022-09-09T10:02:43;1.27;;;1.17;;
34204;SDS011;20471;49.680;20.074;2022-09-09T10:07:59;2.12;;;1.62;;
34204;SDS011;20471;49.680;20.074;2022-09-09T10:10:50;1.20;;;1.15;;
34204;SDS011;20471;49.680;20.074;2022-09-09T10:14:11;1.32;;;1.20;;
34204;SDS011;20471;49.680;20.074;2022-09-09T10:19:33;1.15;;;1.05;;
34204;SDS011;20471;49.680;20.074;2022-09-09T10:36:06;2.40;;;0.98;;
34204;SDS011;20471;49.680;20.074;2022-09-09T10:38:42;1.00;;;1.00;;
34204;SDS011;20471;49.680;20.074;2022-09-09T10:44:24;1.32;;;1.15;;
34204;SDS011;20471;49.680;20.074;2022-09-09T10:55:41;1.10;;;1.02;;
34204;SDS011;20471;49.680;20.074;2022-09-09T10:58:13;1.07;;;1.07;;
34204;SDS011;20471;49.680;20.074;2022-09-09T11:00:57;1.95;;;1.15;;
34204;SDS011;20471;49.680;20.074;2022-09-09T11:03:28;1.07;;;0.98;;
34204;SDS011;20471;49.680;20.074;2022-09-09T11:06:05;1.77;;;1.10;;
34204;SDS011;20471;49.680;20.074;2022-09-09T11:08:47;4.83;;;1.30;;
34204;SDS011;20471;49.680;20.074;2022-09-09T11:11:19;1.98;;;1.17;;
34204;SDS011;20471;49.680;20.074;2022-09-09T11:16:30;2.90;;;1.77;;
34204;SDS011;20471;49.680;20.074;2022-09-09T11:19:21;1.30;;;1.20;;
34204;SDS011;20471;49.680;20.074;2022-09-09T11:25:03;1.72;;;1.17;;
34204;SDS011;20471;49.680;20.074;2022-09-09T11:28:02;1.52;;;1.27;;
34204;SDS011;20471;49.680;20.074;2022-09-09T11:30:45;1.30;;;1.20;;
34204;SDS011;20471;49.680;20.074;2022-09-09T11:42:34;1.30;;;1.20;;
34204;SDS011;20471;49.680;20.074;2022-09-09T11:47:53;2.40;;;0.93;;
34204;SDS011;20471;49.680;20.074;2022-09-09T11:56:11;1.40;;;1.30;;
34204;SDS011;20471;49.680;20.074;2022-09-09T11:58:33;1.00;;;1.00;;
34204;SDS011;20471;49.680;20.074;2022-09-09T12:09:33;1.40;;;1.17;;
34204;SDS011;20471;49.680;20.074;2022-09-09T12:12:21;1.17;;;1.07;;
34204;SDS011;20471;49.680;20.074;2022-09-09T12:14:58;1.10;;;1.02;;
34204;SDS011;20471;49.680;20.074;2022-09-09T12:17:29;1.10;;;1.10;;
34204;SDS011;20471;49.680;20.074;2022-09-09T12:29:02;2.10;;;1.00;;
34204;SDS011;20471;49.680;20.074;2022-09-09T12:37:09;1.07;;;1.07;;
34204;SDS011;20471;49.680;20.074;2022-09-09T12:39:55;1.20;;;1.10;;
34204;SDS011;20471;49.680;20.074;2022-09-09T12:42:28;2.27;;;1.00;;
34204;SDS011;20471;49.680;20.074;2022-09-09T12:44:59;1.32;;;1.22;;
34204;SDS011;20471;49.680;20.074;2022-09-09T12:47:38;1.25;;;1.10;;
34204;SDS011;20471;49.680;20.074;2022-09-09T12:50:22;1.40;;;1.12;;
34204;SDS011;20471;49.680;20.074;2022-09-09T12:52:54;1.40;;;1.30;;
34204;SDS011;20471;49.680;20.074;2022-09-09T12:55:30;1.42;;;1.32;;
34204;SDS011;20471;49.680;20.074;2022-09-09T12:57:59;2.37;;;1.30;;
34204;SDS011;20471;49.680;20.074;2022-09-09T13:00:30;1.80;;;0.98;;
34204;SDS011;20471;49.680;20.074;2022-09-09T13:02:57;1.72;;;1.52;;
34204;SDS011;20471;49.680;20.074;2022-09-09T13:05:35;1.77;;;1.20;;
34204;SDS011;20471;49.680;20.074;2022-09-09T13:08:05;1.75;;;1.10;;
34204;SDS011;20471;49.680;20.074;2022-09-09T13:13:28;1.35;;;1.27;;
34204;SDS011;20471;49.680;20.074;2022-09-09T13:16:00;2.40;;;1.47;;
34204;SDS011;20471;49.680;20.074;2022-09-09T13:18:30;1.70;;;1.35;;
34204;SDS011;20471;49.680;20.074;2022-09-09T13:21:02;4.72;;;1.17;;
34204;SDS011;20471;49.680;20.074;2022-09-09T13:23:32;2.80;;;1.35;;
34204;SDS011;20471;49.680;20.074;2022-09-09T13:26:20;1.17;;;1.00;;
34204;SDS011;20471;49.680;20.074;2022-09-09T13:28:54;3.37;;;1.30;;
34204;SDS011;20471;49.680;20.074;2022-09-09T13:31:30;2.83;;;1.17;;
34204;SDS011;20471;49.680;20.074;2022-09-09T13:34:10;2.98;;;1.12;;
34204;SDS011;20471;49.680;20.074;2022-09-09T13:36:59;1.17;;;1.10;;
34204;SDS011;20471;49.680;20.074;2022-09-09T13:39:30;1.20;;;1.10;;
34204;SDS011;20471;49.680;20.074;2022-09-09T13:42:00;2.92;;;1.22;;
34204;SDS011;20471;49.680;20.074;2022-09-09T13:44:34;1.20;;;1.10;;
34204;SDS011;20471;49.680;20.074;2022-09-09T13:49:42;2.12;;;1.05;;
34204;SDS011;20471;49.680;20.074;2022-09-09T13:52:14;1.35;;;1.07;;
34204;SDS011;20471;49.680;20.074;2022-09-09T13:54:42;1.55;;;1.20;;
34204;SDS011;20471;49.680;20.074;2022-09-09T13:57:17;1.92;;;1.10;;
34204;SDS011;20471;49.680;20.074;2022-09-09T14:02:18;2.02;;;1.22;;
34204;SDS011;20471;49.680;20.074;2022-09-09T14:04:47;1.60;;;1.40;;
34204;SDS011;20471;49.680;20.074;2022-09-09T14:07:16;1.45;;;1.10;;
34204;SDS011;20471;49.680;20.074;2022-09-09T14:09:44;1.70;;;1.15;;
34204;SDS011;20471;49.680;20.074;2022-09-09T14:12:14;1.10;;;1.10;;
34204;SDS011;20471;49.680;20.074;2022-09-09T14:14:41;2.35;;;1.05;;
34204;SDS011;20471;49.680;20.074;2022-09-09T14:17:09;1.20;;;1.10;;
34204;SDS011;20471;49.680;20.074;2022-09-09T14:19:37;1.35;;;1.25;;
34204;SDS011;20471;49.680;20.074;2022-09-09T14:22:05;1.82;;;1.30;;
34204;SDS011;20471;49.680;20.074;2022-09-09T14:24:33;1.22;;;1.20;;
34204;SDS011;20471;49.680;20.074;2022-09-09T14:27:00;1.20;;;1.10;;
34204;SDS011;20471;49.680;20.074;2022-09-09T14:29:29;3.65;;;2.60;;
34204;SDS011;20471;49.680;20.074;2022-09-09T14:31:56;3.80;;;2.67;;
34204;SDS011;20471;49.680;20.074;2022-09-09T14:34:24;1.55;;;1.32;;
34204;SDS011;20471;49.680;20.074;2022-09-09T14:36:52;1.30;;;1.20;;
34204;SDS011;20471;49.680;20.074;2022-09-09T14:39:19;1.70;;;0.98;;
34204;SDS011;20471;49.680;20.074;2022-09-09T14:41:45;1.35;;;1.07;;
34204;SDS011;20471;49.680;20.074;2022-09-09T14:44:16;1.40;;;1.30;;
34204;SDS011;20471;49.680;20.074;2022-09-09T14:46:43;1.65;;;1.10;;
34204;SDS011;20471;49.680;20.074;2022-09-09T14:49:11;1.30;;;1.20;;
34204;SDS011;20471;49.680;20.074;2022-09-09T14:51:38;1.22;;;1.02;;
34204;SDS011;20471;49.680;20.074;2022-09-09T14:54:06;1.45;;;0.90;;
34204;SDS011;20471;49.680;20.074;2022-09-09T14:56:32;1.40;;;1.10;;
34204;SDS011;20471;49.680;20.074;2022-09-09T14:59:03;0.95;;;0.95;;
34204;SDS011;20471;49.680;20.074;2022-09-09T15:01:33;1.00;;;0.90;;
34204;SDS011;20471;49.680;20.074;2022-09-09T15:04:00;1.55;;;1.20;;
34204;SDS011;20471;49.680;20.074;2022-09-09T15:06:30;2.75;;;0.95;;
34204;SDS011;20471;49.680;20.074;2022-09-09T15:08:59;3.05;;;1.17;;
34204;SDS011;20471;49.680;20.074;2022-09-09T15:11:27;3.15;;;1.17;;
34204;SDS011;20471;49.680;20.074;2022-09-09T15:13:57;2.92;;;1.02;;
34204;SDS011;20471;49.680;20.074;2022-09-09T15:16:25;2.85;;;1.20;;
34204;SDS011;20471;49.680;20.074;2022-09-09T15:18:55;1.25;;;1.15;;
34204;SDS011;20471;49.680;20.074;2022-09-09T15:21:24;1.50;;;1.05;;
34204;SDS011;20471;49.680;20.074;2022-09-09T15:23:55;1.40;;;1.30;;
34204;SDS011;20471;49.680;20.074;2022-09-09T15:26:23;1.35;;;1.27;;
34204;SDS011;20471;49.680;20.074;2022-09-09T15:28:51;1.27;;;1.05;;
34204;SDS011;20471;49.680;20.074;2022-09-09T15:31:18;1.47;;;1.15;;
34204;SDS011;20471;49.680;20.074;2022-09-09T15:33:51;2.47;;;1.15;;
34204;SDS011;20471;49.680;20.074;2022-09-09T15:36:30;3.72;;;1.40;;
34204;SDS011;20471;49.680;20.074;2022-09-09T15:39:06;1.80;;;1.35;;
34204;SDS011;20471;49.680;20.074;2022-09-09T15:41:37;2.15;;;1.25;;
34204;SDS011;20471;49.680;20.074;2022-09-09T15:44:05;2.25;;;1.10;;
34204;SDS011;20471;49.680;20.074;2022-09-09T15:46:32;2.33;;;1.32;;
34204;SDS011;20471;49.680;20.074;2022-09-09T15:49:22;2.05;;;1.30;;
34204;SDS011;20471;49.680;20.074;2022-09-09T15:51:55;1.30;;;1.20;;
34204;SDS011;20471;49.680;20.074;2022-09-09T15:54:24;1.32;;;1.22;;
34204;SDS011;20471;49.680;20.074;2022-09-09T15:56:52;1.17;;;1.10;;
34204;SDS011;20471;49.680;20.074;2022-09-09T15:59:25;2.80;;;1.42;;
34204;SDS011;20471;49.680;20.074;2022-09-09T16:01:54;3.20;;;1.47;;
34204;SDS011;20471;49.680;20.074;2022-09-09T16:04:22;2.17;;;1.60;;
34204;SDS011;20471;49.680;20.074;2022-09-09T16:06:54;4.67;;;2.25;;
34204;SDS011;20471;49.680;20.074;2022-09-09T16:09:31;5.42;;;1.80;;
34204;SDS011;20471;49.680;20.074;2022-09-09T16:11:59;2.80;;;1.67;;
34204;SDS011;20471;49.680;20.074;2022-09-09T16:14:28;3.00;;;1.87;;
34204;SDS011;20471;49.680;20.074;2022-09-09T16:16:56;22.07;;;10.15;;
34204;SDS011;20471;49.680;20.074;2022-09-09T16:19:23;30.68;;;15.63;;
34204;SDS011;20471;49.680;20.074;2022-09-09T16:21:51;19.73;;;11.85;;
34204;SDS011;20471;49.680;20.074;2022-09-09T16:24:18;15.90;;;8.90;;
34204;SDS011;20471;49.680;20.074;2022-09-09T16:26:50;9.98;;;6.72;;
34204;SDS011;20471;49.680;20.074;2022-09-09T16:29:16;7.50;;;5.33;;
34204;SDS011;20471;49.680;20.074;2022-09-09T16:31:45;6.05;;;4.53;;
34204;SDS011;20471;49.680;20.074;2022-09-09T16:34:12;10.45;;;5.60;;
34204;SDS011;20471;49.680;20.074;2022-09-09T16:36:40;6.00;;;3.52;;
34204;SDS011;20471;49.680;20.074;2022-09-09T16:39:09;4.42;;;3.58;;
34204;SDS011;20471;49.680;20.074;2022-09-09T16:41:42;5.47;;;2.98;;
34204;SDS011;20471;49.680;20.074;2022-09-09T16:44:11;4.00;;;2.40;;
34204;SDS011;20471;49.680;20.074;2022-09-09T16:46:40;3.35;;;2.20;;
34204;SDS011;20471;49.680;20.074;2022-09-09T16:49:09;5.53;;;3.62;;
34204;SDS011;20471;49.680;20.074;2022-09-09T16:51:47;8.10;;;3.37;;
34204;SDS011;20471;49.680;20.074;2022-09-09T16:54:17;4.30;;;2.92;;
34204;SDS011;20471;49.680;20.074;2022-09-09T16:56:44;5.12;;;2.90;;
34204;SDS011;20471;49.680;20.074;2022-09-09T16:59:17;3.22;;;2.90;;
34204;SDS011;20471;49.680;20.074;2022-09-09T17:04:15;8.15;;;3.35;;
34204;SDS011;20471;49.680;20.074;2022-09-09T17:06:46;5.62;;;3.12;;
34204;SDS011;20471;49.680;20.074;2022-09-09T17:09:15;4.80;;;3.50;;
34204;SDS011;20471;49.680;20.074;2022-09-09T17:11:42;4.60;;;3.15;;
34204;SDS011;20471;49.680;20.074;2022-09-09T17:14:12;4.70;;;3.40;;
34204;SDS011;20471;49.680;20.074;2022-09-09T17:16:41;3.52;;;3.22;;
34204;SDS011;20471;49.680;20.074;2022-09-09T17:19:08;4.70;;;3.25;;
34204;SDS011;20471;49.680;20.074;2022-09-09T17:21:36;5.97;;;3.83;;
34204;SDS011;20471;49.680;20.074;2022-09-09T17:24:03;7.05;;;4.47;;
34204;SDS011;20471;49.680;20.074;2022-09-09T17:26:30;10.60;;;6.03;;
34204;SDS011;20471;49.680;20.074;2022-09-09T17:28:59;10.63;;;8.30;;
34204;SDS011;20471;49.680;20.074;2022-09-09T17:31:28;10.98;;;8.50;;
34204;SDS011;20471;49.680;20.074;2022-09-09T17:33:56;11.35;;;8.25;;
34204;SDS011;20471;49.680;20.074;2022-09-09T17:36:28;12.78;;;8.18;;
34204;SDS011;20471;49.680;20.074;2022-09-09T17:38:58;23.87;;;15.80;;
34204;SDS011;20471;49.680;20.074;2022-09-09T17:41:28;27.37;;;20.27;;
34204;SDS011;20471;49.680;20.074;2022-09-09T17:44:00;35.78;;;25.85;;
34204;SDS011;20471;49.680;20.074;2022-09-09T17:46:28;40.48;;;31.15;;
34204;SDS011;20471;49.680;20.074;2022-09-09T17:49:02;60.25;;;41.23;;